Time;durP1;ratioP1;P1;durP2;ratioP2;P2;SDS_P1;SDS_P2;PMS_P1;PMS_P2;Temp;Humidity;BMP_temperature;BMP_pressure;BME280_temperature;BME280_humidity;BME280_pressure;Samples;Min_cycle;Max_cycle;Signal;HPM_P1;HPM_P2
2021/01/28 00:01:53;;;;;;;20.13;17.63;;;1.80;99.90;;;;;;5054983;28;20206;-48
2021/01/28 00:04:18;;;;;;;21.67;18.27;;;1.80;99.90;;;;;;5055004;28;20199;-47
2021/01/28 00:06:44;;;;;;;20.83;18.20;;;1.90;99.90;;;;;;5055044;28;20211;-51
2021/01/28 00:09:09;;;;;;;22.53;19.03;;;2.00;99.90;;;;;;5055232;28;20229;-51
2021/01/28 00:11:35;;;;;;;24.97;20.00;;;2.00;99.90;;;;;;5055569;28;20191;-50
2021/01/28 00:14:00;;;;;;;21.10;18.27;;;2.10;99.90;;;;;;5055506;28;20167;-48
2021/01/28 00:16:27;;;;;;;23.17;19.23;;;2.20;99.90;;;;;;5054613;28;20179;-50
2021/01/28 00:18:53;;;;;;;21.10;18.20;;;2.30;99.90;;;;;;5055429;28;20663;-49
2021/01/28 00:21:18;;;;;;;21.13;18.60;;;2.30;99.90;;;;;;5054731;28;20404;-49
2021/01/28 00:23:44;;;;;;;19.97;17.87;;;2.30;99.90;;;;;;5054643;28;20232;-51
2021/01/28 00:26:10;;;;;;;19.47;17.03;;;2.30;99.90;;;;;;5054994;28;20175;-49
2021/01/28 00:28:35;;;;;;;21.40;18.53;;;2.40;99.90;;;;;;5055543;28;20234;-51
2021/01/28 00:31:01;;;;;;;19.23;16.97;;;2.40;99.90;;;;;;5056163;28;20196;-52
2021/01/28 00:33:26;;;;;;;20.97;18.27;;;2.40;99.90;;;;;;5054400;28;20211;-50
2021/01/28 00:35:54;;;;;;;19.67;17.37;;;2.40;99.90;;;;;;5054783;28;20171;-50
2021/01/28 00:38:30;;;;;;;23.00;19.40;;;2.30;99.90;;;;;;5054350;28;20213;-50
2021/01/28 00:40:57;;;;;;;22.63;18.33;;;2.30;99.90;;;;;;5065758;28;20903;-49
2021/01/28 00:43:23;;;;;;;21.77;19.03;;;2.40;99.90;;;;;;5069505;28;20459;-52
2021/01/28 00:45:49;;;;;;;21.37;19.03;;;2.40;99.90;;;;;;5054070;28;20410;-49
2021/01/28 00:48:15;;;;;;;21.47;17.80;;;2.50;99.90;;;;;;5053969;28;20663;-50
2021/01/28 00:50:42;;;;;;;22.03;19.53;;;2.50;99.90;;;;;;5055487;28;20444;-50
2021/01/28 00:53:11;;;;;;;25.43;20.77;;;2.40;99.90;;;;;;5058906;28;20879;-53
2021/01/28 00:55:36;;;;;;;27.57;23.87;;;2.30;99.90;;;;;;5073706;28;20424;-47
2021/01/28 00:58:03;;;;;;;23.37;19.60;;;2.30;99.90;;;;;;5073818;28;20413;-53
2021/01/28 01:00:39;;;;;;;20.13;17.90;;;2.40;99.90;;;;;;5066952;28;20527;-49
2021/01/28 01:03:09;;;;;;;19.53;17.53;;;2.50;99.90;;;;;;5054589;28;20785;-50
2021/01/28 01:05:35;;;;;;;19.47;17.40;;;2.70;99.90;;;;;;5053987;28;20426;-51
2021/01/28 01:08:06;;;;;;;21.53;18.87;;;2.80;99.90;;;;;;5053808;28;20503;-52
2021/01/28 01:10:36;;;;;;;21.77;18.03;;;3.00;99.90;;;;;;5053569;28;20941;-49
2021/01/28 01:13:03;;;;;;;19.73;17.63;;;3.10;99.90;;;;;;5054004;28;20947;-48
2021/01/28 01:15:29;;;;;;;20.73;18.00;;;3.20;99.90;;;;;;5052912;28;20413;-53
2021/01/28 01:17:55;;;;;;;20.37;18.07;;;3.30;99.90;;;;;;5053506;28;20413;-48
2021/01/28 01:20:22;;;;;;;20.83;17.97;;;3.30;99.90;;;;;;5061174;28;20207;-48
2021/01/28 01:22:47;;;;;;;21.00;18.13;;;3.20;99.90;;;;;;5069804;28;20668;-49
2021/01/28 01:25:16;;;;;;;20.77;17.60;;;3.20;99.90;;;;;;5072890;28;20503;-49
2021/01/28 01:27:41;;;;;;;21.93;18.70;;;3.20;99.90;;;;;;5073209;28;20646;-53
2021/01/28 01:30:07;;;;;;;19.97;17.87;;;3.10;99.90;;;;;;5059903;28;20510;-51
2021/01/28 01:32:33;;;;;;;19.80;17.50;;;3.10;99.90;;;;;;5054013;28;20202;-51
2021/01/28 01:34:59;;;;;;;20.07;17.83;;;3.10;99.90;;;;;;5071260;28;20182;-49
2021/01/28 01:37:25;;;;;;;20.37;18.10;;;3.10;99.90;;;;;;5070743;28;20218;-51
2021/01/28 01:39:51;;;;;;;20.60;18.00;;;3.10;99.90;;;;;;5058825;28;20210;-48
2021/01/28 01:42:17;;;;;;;22.50;18.40;;;3.20;99.90;;;;;;5060213;28;20198;-52
2021/01/28 01:44:43;;;;;;;18.83;16.80;;;3.30;99.90;;;;;;5068720;28;20189;-49
2021/01/28 01:47:17;;;;;;;20.23;17.67;;;3.40;99.90;;;;;;5072984;28;20265;-49
2021/01/28 01:49:45;;;;;;;19.63;17.33;;;3.40;99.90;;;;;;5073353;28;20201;-51
2021/01/28 01:52:13;;;;;;;21.20;17.60;;;3.50;99.90;;;;;;5073181;28;20206;-55
2021/01/28 01:54:41;;;;;;;19.87;17.80;;;3.50;99.90;;;;;;5073386;28;20405;-48
2021/01/28 01:57:15;;;;;;;19.23;17.13;;;3.50;99.90;;;;;;5073081;28;20679;-49
2021/01/28 01:59:48;;;;;;;20.20;17.57;;;3.60;99.90;;;;;;5073195;28;20194;-52
2021/01/28 02:02:18;;;;;;;21.87;18.57;;;3.60;99.90;;;;;;5073252;28;20634;-50
2021/01/28 02:04:45;;;;;;;21.50;18.47;;;3.50;99.90;;;;;;5073183;28;20171;-50
2021/01/28 02:07:26;;;;;;;20.50;18.13;;;3.40;99.90;;;;;;5073502;28;20174;-50
2021/01/28 02:09:52;;;;;;;20.37;18.17;;;3.40;99.90;;;;;;5072978;28;20210;-51
2021/01/28 02:12:18;;;;;;;21.27;18.97;;;3.50;99.90;;;;;;5073065;28;20198;-48
2021/01/28 02:14:46;;;;;;;22.60;19.20;;;3.50;99.90;;;;;;5073005;28;20178;-48
2021/01/28 02:17:18;;;;;;;21.03;18.73;;;3.60;99.90;;;;;;5073339;28;20635;-48
2021/01/28 02:20:07;;;;;;;20.87;18.67;;;3.60;99.90;;;;;;5073115;28;20186;-53
2021/01/28 02:22:44;;;;;;;21.47;19.20;;;3.60;99.90;;;;;;5073335;28;20214;-52
2021/01/28 02:25:35;;;;;;;22.13;18.93;;;3.60;99.90;;;;;;5073433;28;20239;-51
2021/01/28 02:28:04;;;;;;;24.50;20.67;;;3.60;99.90;;;;;;5077139;28;20229;-48
2021/01/28 02:30:31;;;;;;;26.07;21.10;;;3.60;99.90;;;;;;5076617;28;20174;-50
2021/01/28 02:32:57;;;;;;;23.63;20.67;;;3.50;99.90;;;;;;5076761;28;20456;-55
2021/01/28 02:35:26;;;;;;;24.97;21.33;;;3.40;99.90;;;;;;5076718;28;20178;-52
2021/01/28 02:37:53;;;;;;;22.53;20.07;;;3.20;99.90;;;;;;5076213;28;20253;-48
2021/01/28 02:40:21;;;;;;;26.67;23.27;;;3.20;99.90;;;;;;5076954;28;20198;-53
2021/01/28 02:42:47;;;;;;;25.77;21.93;;;3.10;99.90;;;;;;5076537;28;20170;-48
2021/01/28 02:45:19;;;;;;;23.03;20.53;;;3.20;99.90;;;;;;5076455;28;20174;-51
2021/01/28 02:47:53;;;;;;;23.93;20.63;;;3.20;99.90;;;;;;5076123;28;20190;-48
2021/01/28 02:50:19;;;;;;;23.93;20.70;;;3.10;99.90;;;;;;5076536;28;20174;-47
2021/01/28 02:52:45;;;;;;;24.70;22.00;;;3.10;99.90;;;;;;5076387;28;20517;-50
2021/01/28 02:55:11;;;;;;;25.13;21.23;;;3.00;99.90;;;;;;5076351;28;20162;-50
2021/01/28 02:57:36;;;;;;;25.73;21.67;;;3.00;99.90;;;;;;5076119;28;20179;-51
2021/01/28 03:00:07;;;;;;;24.93;22.23;;;3.00;99.90;;;;;;5076536;28;20281;-49
2021/01/28 03:02:32;;;;;;;28.63;24.03;;;3.10;99.90;;;;;;5072688;28;20202;-48
2021/01/28 03:04:58;;;;;;;24.37;21.20;;;3.20;99.90;;;;;;5057974;28;20444;-50
2021/01/28 03:07:23;;;;;;;24.23;20.90;;;3.20;99.90;;;;;;5055989;28;20240;-50
2021/01/28 03:09:49;;;;;;;23.97;20.37;;;3.30;99.90;;;;;;5055437;28;20225;-51
2021/01/28 03:12:14;;;;;;;22.20;19.27;;;3.40;99.90;;;;;;5056154;28;20260;-49
2021/01/28 03:14:40;;;;;;;23.10;19.20;;;3.40;99.90;;;;;;5055716;28;20209;-49
2021/01/28 03:17:05;;;;;;;24.53;19.63;;;3.50;99.90;;;;;;5055925;28;20183;-48
2021/01/28 03:19:31;;;;;;;22.10;19.30;;;3.40;99.90;;;;;;5055816;28;20236;-51
2021/01/28 03:21:56;;;;;;;25.70;21.43;;;3.30;99.90;;;;;;5056058;28;20190;-51
2021/01/28 03:24:22;;;;;;;24.77;22.07;;;3.30;99.90;;;;;;5055737;28;20171;-51
2021/01/28 03:26:47;;;;;;;23.27;20.77;;;3.30;99.90;;;;;;5055617;28;20175;-49
2021/01/28 03:29:13;;;;;;;25.93;22.70;;;3.30;99.90;;;;;;5054405;28;20202;-48
2021/01/28 03:31:41;;;;;;;24.37;21.23;;;3.30;99.90;;;;;;5055628;28;20717;-55
2021/01/28 03:34:06;;;;;;;24.37;21.77;;;3.20;99.90;;;;;;5055749;28;20440;-52
2021/01/28 03:36:32;;;;;;;24.33;21.67;;;3.20;99.90;;;;;;5055648;28;20627;-48
2021/01/28 03:38:58;;;;;;;26.60;21.80;;;3.10;99.90;;;;;;5054897;28;20191;-48
2021/01/28 03:41:24;;;;;;;26.33;21.77;;;3.20;99.90;;;;;;5055754;28;20183;-51
2021/01/28 03:43:49;;;;;;;25.87;22.20;;;3.20;99.90;;;;;;5055489;28;20580;-51
2021/01/28 03:46:15;;;;;;;26.43;21.30;;;3.20;99.90;;;;;;5055240;28;20736;-51
2021/01/28 03:48:40;;;;;;;23.73;21.23;;;3.20;99.90;;;;;;5055667;28;20195;-51
2021/01/28 03:51:06;;;;;;;25.67;22.40;;;3.20;99.90;;;;;;5055143;28;20203;-50
2021/01/28 03:53:32;;;;;;;25.83;21.93;;;3.40;99.90;;;;;;5055144;28;20210;-48
2021/01/28 03:55:58;;;;;;;27.40;23.30;;;3.40;99.90;;;;;;5055164;28;20464;-50
2021/01/28 03:58:23;;;;;;;26.30;23.50;;;3.40;99.90;;;;;;5055197;28;20248;-54
2021/01/28 04:00:49;;;;;;;28.93;24.40;;;3.50;99.90;;;;;;5055272;28;20577;-54
2021/01/28 04:03:15;;;;;;;27.63;24.23;;;3.50;99.90;;;;;;5054880;28;20182;-52
2021/01/28 04:05:40;;;;;;;25.70;22.63;;;3.60;99.90;;;;;;5055013;28;20216;-47
2021/01/28 04:08:06;;;;;;;27.13;23.73;;;3.50;99.90;;;;;;5054866;28;20631;-48
2021/01/28 04:10:36;;;;;;;26.87;23.67;;;3.50;99.90;;;;;;5055340;28;20191;-51
2021/01/28 04:13:04;;;;;;;28.77;24.40;;;3.60;99.90;;;;;;5054893;28;20199;-48
2021/01/28 04:15:30;;;;;;;28.07;23.93;;;3.60;99.90;;;;;;5054826;28;20175;-48
2021/01/28 04:17:56;;;;;;;27.43;23.07;;;3.70;99.90;;;;;;5054404;28;20221;-49
2021/01/28 04:20:25;;;;;;;25.97;21.97;;;3.70;99.90;;;;;;5054778;28;20623;-48
2021/01/28 04:22:50;;;;;;;26.03;22.13;;;3.50;99.90;;;;;;5054836;28;20263;-53
2021/01/28 04:25:17;;;;;;;29.70;24.57;;;3.50;99.90;;;;;;5054728;28;20587;-48
2021/01/28 04:27:43;;;;;;;27.03;22.03;;;3.50;99.90;;;;;;5053383;28;20201;-51
2021/01/28 04:30:12;;;;;;;29.93;25.07;;;3.30;99.90;;;;;;5055137;28;20294;-49
2021/01/28 04:32:37;;;;;;;36.13;28.53;;;3.20;99.90;;;;;;5070486;28;20202;-48
2021/01/28 04:35:06;;;;;;;26.40;22.60;;;3.20;99.90;;;;;;5055331;28;20585;-50
2021/01/28 04:37:31;;;;;;;32.50;26.90;;;3.20;99.90;;;;;;5054682;28;20179;-52
2021/01/28 04:39:57;;;;;;;28.33;24.37;;;3.20;99.90;;;;;;5053439;28;20215;-51
2021/01/28 04:42:43;;;;;;;26.33;22.33;;;3.20;99.90;;;;;;5065732;28;20190;-50
2021/01/28 04:45:09;;;;;;;28.83;24.03;;;3.30;99.90;;;;;;5057446;28;20241;-52
2021/01/28 04:47:36;;;;;;;28.33;24.33;;;3.40;99.90;;;;;;5054734;28;20186;-52
2021/01/28 04:50:04;;;;;;;26.60;23.43;;;3.30;99.90;;;;;;5058963;28;20301;-53
2021/01/28 04:52:37;;;;;;;27.73;24.43;;;3.20;99.90;;;;;;5054365;28;20781;-52
2021/01/28 04:55:03;;;;;;;26.73;23.73;;;3.30;99.90;;;;;;5054029;28;20508;-51
2021/01/28 04:57:28;;;;;;;26.57;23.10;;;3.40;99.90;;;;;;5054362;28;20344;-55
2021/01/28 04:59:54;;;;;;;28.07;23.87;;;3.30;99.90;;;;;;5054134;28;20217;-52
2021/01/28 05:02:23;;;;;;;27.10;23.53;;;3.20;99.90;;;;;;5053869;28;20190;-50
2021/01/28 05:04:59;;;;;;;26.43;23.30;;;3.20;99.90;;;;;;5053860;28;20187;-49
2021/01/28 05:07:35;;;;;;;26.47;22.60;;;3.20;99.90;;;;;;5054162;28;20638;-51
2021/01/28 05:10:10;;;;;;;26.77;23.00;;;3.20;99.90;;;;;;5055958;28;20317;-56
2021/01/28 05:12:35;;;;;;;27.40;23.13;;;3.10;99.90;;;;;;5054084;28;20222;-51
2021/01/28 05:15:32;;;;;;;27.03;22.10;;;3.10;99.90;;;;;;5069814;28;20564;-57
2021/01/28 05:18:08;;;;;;;26.17;23.00;;;3.30;99.90;;;;;;5068489;28;20622;-50
2021/01/28 05:20:33;;;;;;;28.97;25.30;;;3.30;99.90;;;;;;5054402;28;20483;-48
2021/01/28 05:23:29;;;;;;;30.47;25.13;;;3.30;99.90;;;;;;5053915;28;20222;-55
2021/01/28 05:25:55;;;;;;;41.00;29.67;;;3.40;99.90;;;;;;5052835;28;20187;-51
2021/01/28 05:28:23;;;;;;;28.13;23.70;;;3.50;99.90;;;;;;5053794;28;20536;-52
2021/01/28 05:30:49;;;;;;;27.90;23.40;;;3.60;99.90;;;;;;5063694;28;20206;-53
2021/01/28 05:33:36;;;;;;;26.17;22.33;;;3.70;99.90;;;;;;5056757;28;20210;-47
2021/01/28 05:36:05;;;;;;;26.93;23.00;;;3.80;99.90;;;;;;5070197;28;20207;-54
2021/01/28 05:38:40;;;;;;;35.20;30.17;;;3.80;99.90;;;;;;5061999;28;20195;-49
2021/01/28 05:41:08;;;;;;;26.50;22.53;;;3.80;99.90;;;;;;5053669;28;20692;-50
2021/01/28 05:43:43;;;;;;;25.80;22.47;;;3.80;99.90;;;;;;5058042;28;20213;-50
2021/01/28 05:46:15;;;;;;;23.97;21.37;;;3.80;99.90;;;;;;5066940;28;20178;-49
2021/01/28 05:48:41;;;;;;;24.63;21.83;;;3.80;99.90;;;;;;5064035;28;20194;-56
2021/01/28 05:51:20;;;;;;;24.10;21.50;;;3.90;99.90;;;;;;5062849;28;20258;-47
2021/01/28 05:54:04;;;;;;;24.13;21.50;;;3.90;99.90;;;;;;5062523;28;20202;-50
2021/01/28 05:56:34;;;;;;;23.60;21.07;;;3.80;99.90;;;;;;5063767;28;20650;-47
2021/01/28 05:59:08;;;;;;;28.77;25.40;;;3.80;99.90;;;;;;5064115;28;20194;-48
2021/01/28 06:02:18;;;;;;;26.57;22.93;;;3.70;99.90;;;;;;5063681;28;20170;-55
2021/01/28 06:05:15;;;;;;;26.10;23.00;;;3.90;99.90;;;;;;5029869;28;20183;-49
2021/01/28 06:07:40;;;;;;;26.20;23.33;;;3.60;99.90;;;;;;5055892;28;20186;-49
2021/01/28 06:10:27;;;;;;;33.00;26.87;;;3.60;99.90;;;;;;5066209;28;20209;-47
2021/01/28 06:13:13;;;;;;;27.87;24.07;;;3.70;99.90;;;;;;5067495;28;20202;-49
2021/01/28 06:15:48;;;;;;;26.30;22.93;;;3.80;99.90;;;;;;5067994;28;20606;-47
2021/01/28 06:18:40;;;;;;;28.03;23.87;;;3.90;99.90;;;;;;5065663;28;20263;-52
2021/01/28 06:21:30;;;;;;;26.60;22.37;;;4.00;99.90;;;;;;5067627;28;20216;-53
2021/01/28 06:23:59;;;;;;;26.80;23.40;;;4.00;99.90;;;;;;5067596;28;20646;-49
2021/01/28 06:26:43;;;;;;;27.80;23.80;;;4.10;99.90;;;;;;5066683;28;20181;-51
2021/01/28 06:29:20;;;;;;;27.27;23.57;;;4.10;99.90;;;;;;5056527;28;20195;-48
2021/01/28 06:32:26;;;;;;;27.07;23.43;;;4.10;99.90;;;;;;5056739;28;20587;-48
2021/01/28 06:34:57;;;;;;;28.47;23.37;;;4.10;99.90;;;;;;5058455;28;20504;-53
2021/01/28 06:37:36;;;;;;;27.60;23.43;;;4.20;99.90;;;;;;5060904;28;20188;-53
2021/01/28 06:40:06;;;;;;;27.23;23.07;;;4.20;99.90;;;;;;5076741;28;20198;-47
2021/01/28 06:42:39;;;;;;;28.33;23.33;;;4.20;99.90;;;;;;5076710;28;20178;-49
2021/01/28 06:45:14;;;;;;;29.40;25.20;;;4.20;99.90;;;;;;5076863;28;20211;-47
2021/01/28 06:48:05;;;;;;;30.83;25.90;;;4.20;99.90;;;;;;5076270;28;20182;-47
2021/01/28 06:50:58;;;;;;;33.70;28.17;;;4.00;99.90;;;;;;5076370;28;20181;-52
2021/01/28 06:53:58;;;;;;;31.43;26.50;;;3.90;99.90;;;;;;5065708;28;20226;-51
2021/01/28 06:56:37;;;;;;;32.60;27.97;;;3.80;99.90;;;;;;5056126;28;20187;-49
2021/01/28 06:59:13;;;;;;;31.70;27.13;;;3.70;99.90;;;;;;5055055;28;20228;-49
2021/01/28 07:01:52;;;;;;;33.97;29.30;;;3.70;99.90;;;;;;5065921;28;20201;-47
2021/01/28 07:04:33;;;;;;;28.93;23.93;;;3.70;99.90;;;;;;5067178;28;20604;-49
2021/01/28 07:07:23;;;;;;;32.20;27.17;;;3.60;99.90;;;;;;5066564;28;20163;-47
2021/01/28 07:10:19;;;;;;;29.67;24.40;;;3.50;99.90;;;;;;5066467;28;20214;-49
2021/01/28 07:12:51;;;;;;;28.37;23.87;;;3.50;99.90;;;;;;5065611;28;20213;-50
2021/01/28 07:15:19;;;;;;;29.40;24.80;;;3.30;99.90;;;;;;5064815;28;20179;-51
2021/01/28 07:17:51;;;;;;;28.90;23.40;;;3.30;99.90;;;;;;5069557;28;20243;-52
2021/01/28 07:20:31;;;;;;;28.97;23.50;;;3.30;99.90;;;;;;5055916;28;20179;-48
2021/01/28 07:23:18;;;;;;;25.83;22.00;;;3.20;99.90;;;;;;5082583;28;20185;-50
2021/01/28 07:25:46;;;;;;;25.80;21.97;;;3.30;99.90;;;;;;5095729;28;20186;-53
2021/01/28 07:28:17;;;;;;;27.50;22.53;;;3.40;99.90;;;;;;5080870;28;20701;-50
2021/01/28 07:30:46;;;;;;;26.37;22.83;;;3.50;99.90;;;;;;5080971;28;20210;-48
2021/01/28 07:33:24;;;;;;;25.20;21.90;;;3.50;99.90;;;;;;5075054;28;20276;-51
2021/01/28 07:35:54;;;;;;;25.57;20.53;;;3.50;99.90;;;;;;5072100;28;20198;-52
2021/01/28 07:38:31;;;;;;;26.20;22.00;;;3.70;99.90;;;;;;5069958;28;20659;-52
2021/01/28 07:41:09;;;;;;;25.20;21.37;;;3.60;99.90;;;;;;5073574;28;20178;-52
2021/01/28 07:43:40;;;;;;;25.90;21.60;;;3.60;99.90;;;;;;5075805;28;20649;-50
2021/01/28 07:46:32;;;;;;;24.40;20.40;;;3.70;99.90;;;;;;5074235;28;20199;-56
2021/01/28 07:49:12;;;;;;;26.93;21.83;;;3.70;99.90;;;;;;5076548;28;20206;-53
2021/01/28 07:51:52;;;;;;;23.60;19.83;;;3.70;99.90;;;;;;5077210;28;20587;-48
2021/01/28 07:54:24;;;;;;;24.30;20.33;;;3.70;99.90;;;;;;5073912;28;20197;-53
2021/01/28 07:57:00;;;;;;;24.87;20.77;;;3.80;99.90;;;;;;5076657;28;20178;-52
2021/01/28 07:59:34;;;;;;;25.73;21.47;;;3.70;99.90;;;;;;5076197;28;20205;-55
2021/01/28 08:02:12;;;;;;;26.53;22.13;;;3.20;99.90;;;;;;5076358;28;20182;-52
2021/01/28 08:04:52;;;;;;;21.73;18.67;;;3.60;99.90;;;;;;5076447;28;20185;-53
2021/01/28 08:07:27;;;;;;;23.47;19.77;;;3.60;99.90;;;;;;5066672;28;20581;-48
2021/01/28 08:09:59;;;;;;;22.73;19.63;;;3.70;99.90;;;;;;5073849;28;20217;-51
2021/01/28 08:12:53;;;;;;;23.20;19.93;;;3.80;99.90;;;;;;5076579;28;20198;-47
2021/01/28 08:15:35;;;;;;;24.03;19.27;;;3.70;99.90;;;;;;5064114;28;20186;-53
2021/01/28 08:18:27;;;;;;;21.43;18.27;;;3.70;99.90;;;;;;5063520;28;20179;-51
2021/01/28 08:21:18;;;;;;;22.83;19.57;;;3.80;99.90;;;;;;5065468;28;20382;-52
2021/01/28 08:23:44;;;;;;;21.50;17.63;;;3.80;99.90;;;;;;5060091;28;20337;-51
2021/01/28 08:26:13;;;;;;;21.23;18.23;;;3.90;99.90;;;;;;5057703;28;20202;-49
2021/01/28 08:28:41;;;;;;;21.77;18.60;;;3.90;99.90;;;;;;5059425;28;20262;-54
2021/01/28 08:31:31;;;;;;;21.93;18.20;;;3.80;99.90;;;;;;5065280;28;20197;-51
2021/01/28 08:34:00;;;;;;;22.30;18.53;;;3.80;99.90;;;;;;5075112;28;20249;-46
2021/01/28 08:36:39;;;;;;;22.97;20.13;;;3.70;99.90;;;;;;5074940;28;20178;-56
2021/01/28 08:39:27;;;;;;;22.97;19.30;;;3.90;99.90;;;;;;5065496;28;20244;-49
2021/01/28 08:42:14;;;;;;;23.17;18.73;;;4.00;99.90;;;;;;5067788;28;20178;-55
2021/01/28 08:44:43;;;;;;;20.93;17.90;;;4.10;99.90;;;;;;5070122;28;20670;-47
2021/01/28 08:47:23;;;;;;;20.87;18.17;;;4.20;99.90;;;;;;5072679;28;20545;-49
2021/01/28 08:50:07;;;;;;;19.77;17.67;;;4.40;99.90;;;;;;5066266;28;20217;-52
2021/01/28 08:52:34;;;;;;;19.07;17.03;;;4.40;99.90;;;;;;5056513;28;20195;-46
2021/01/28 08:55:11;;;;;;;20.23;17.23;;;4.40;99.90;;;;;;5054725;28;20879;-52
2021/01/28 08:57:37;;;;;;;40.10;29.90;;;4.50;99.90;;;;;;5056052;28;20211;-54
2021/01/28 09:00:08;;;;;;;26.60;22.80;;;4.60;99.90;;;;;;5061586;28;20219;-48
2021/01/28 09:02:37;;;;;;;24.77;21.47;;;4.80;99.90;;;;;;5070794;28;20182;-51
2021/01/28 09:05:20;;;;;;;20.90;18.17;;;4.90;99.90;;;;;;5058709;28;20244;-50
2021/01/28 09:07:51;;;;;;;18.60;16.60;;;5.00;99.90;;;;;;5053977;28;20207;-50
2021/01/28 09:10:27;;;;;;;19.33;17.23;;;5.10;99.90;;;;;;5063623;28;20241;-50
2021/01/28 09:13:09;;;;;;;26.13;23.53;;;5.20;99.90;;;;;;5072171;28;20202;-53
2021/01/28 09:15:35;;;;;;;20.70;18.50;;;5.40;99.90;;;;;;5076422;28;20598;-46
2021/01/28 09:18:31;;;;;;;23.90;21.17;;;5.60;99.90;;;;;;5067162;28;20646;-51
2021/01/28 09:21:08;;;;;;;25.13;22.47;;;5.70;99.90;;;;;;5077684;28;20222;-49
2021/01/28 09:23:34;;;;;;;21.37;18.47;;;5.80;99.90;;;;;;5088274;28;20178;-48
2021/01/28 09:26:18;;;;;;;25.70;22.90;;;5.80;99.90;;;;;;5062709;28;20217;-47
2021/01/28 09:28:44;;;;;;;22.90;19.17;;;5.80;99.90;;;;;;5064833;28;20209;-47
2021/01/28 09:31:31;;;;;;;23.93;21.00;;;5.80;99.90;;;;;;5066532;28;20257;-49
2021/01/28 09:34:09;;;;;;;22.30;19.40;;;6.00;99.90;;;;;;5062552;28;20230;-47
2021/01/28 09:36:37;;;;;;;23.03;20.17;;;6.00;99.90;;;;;;5069495;28;20189;-52
2021/01/28 09:39:13;;;;;;;31.47;28.00;;;6.10;99.90;;;;;;5057630;28;20194;-51
2021/01/28 09:41:48;;;;;;;20.60;18.33;;;6.20;99.90;;;;;;5054828;28;20179;-50
2021/01/28 09:44:32;;;;;;;22.17;19.77;;;6.20;99.90;;;;;;5054253;28;20175;-50
2021/01/28 09:47:28;;;;;;;21.80;19.03;;;6.20;99.90;;;;;;5062745;28;20187;-47
2021/01/28 09:50:00;;;;;;;21.53;18.47;;;6.20;99.90;;;;;;5070215;28;20234;-50
2021/01/28 09:52:27;;;;;;;21.60;18.63;;;6.20;99.90;;;;;;5073294;28;20194;-50
2021/01/28 09:54:56;;;;;;;19.33;17.23;;;6.20;99.90;;;;;;5082481;28;20175;-50
2021/01/28 09:57:23;;;;;;;20.87;18.67;;;6.20;99.90;;;;;;5074547;28;20202;-48
2021/01/28 09:59:48;;;;;;;18.90;16.60;;;6.10;99.90;;;;;;5073540;28;20273;-46
2021/01/28 10:02:21;;;;;;;20.03;17.73;;;6.10;99.90;;;;;;5069887;28;20668;-49
2021/01/28 10:04:47;;;;;;;20.37;17.20;;;6.10;99.90;;;;;;5070594;28;20174;-48
2021/01/28 10:07:13;;;;;;;19.33;17.23;;;6.10;99.90;;;;;;5073838;28;20184;-47
2021/01/28 10:09:39;;;;;;;20.40;17.77;;;6.20;99.90;;;;;;5072082;28;20293;-47
2021/01/28 10:12:06;;;;;;;19.87;17.73;;;6.20;99.90;;;;;;5074709;28;20277;-54
2021/01/28 10:14:32;;;;;;;20.47;18.23;;;6.20;99.90;;;;;;5076449;28;20179;-53
2021/01/28 10:16:57;;;;;;;26.47;23.13;;;6.20;99.90;;;;;;5073742;28;20171;-52
2021/01/28 10:19:23;;;;;;;28.83;25.73;;;6.10;99.90;;;;;;5072553;28;20213;-48
2021/01/28 10:21:48;;;;;;;23.10;19.70;;;6.10;99.90;;;;;;5070875;28;20526;-49
2021/01/28 10:24:14;;;;;;;20.90;17.60;;;6.20;99.90;;;;;;5073702;28;20201;-49
2021/01/28 10:26:39;;;;;;;19.00;16.13;;;6.20;99.90;;;;;;5073189;28;20634;-50
2021/01/28 10:29:05;;;;;;;19.60;15.83;;;6.20;99.90;;;;;;5075901;28;20249;-51
2021/01/28 10:31:31;;;;;;;20.27;16.90;;;6.30;99.90;;;;;;5071714;28;20196;-52
2021/01/28 10:33:56;;;;;;;20.57;17.67;;;6.30;99.90;;;;;;5073327;28;20222;-53
2021/01/28 10:36:22;;;;;;;19.93;17.07;;;6.40;99.90;;;;;;5076475;28;20170;-48
2021/01/28 10:38:47;;;;;;;22.03;17.20;;;6.40;99.90;;;;;;5073405;28;20201;-47
2021/01/28 10:41:13;;;;;;;19.33;17.10;;;6.30;99.90;;;;;;5071821;28;20254;-55
2021/01/28 10:43:38;;;;;;;19.10;16.27;;;6.20;99.90;;;;;;5069847;28;20198;-48
2021/01/28 10:46:04;;;;;;;17.90;15.73;;;6.10;99.90;;;;;;5068434;28;20232;-47
2021/01/28 10:48:30;;;;;;;19.40;16.33;;;6.20;99.90;;;;;;5073848;28;20604;-49
2021/01/28 10:50:55;;;;;;;20.27;16.60;;;6.20;99.90;;;;;;5076066;28;20179;-47
2021/01/28 10:53:21;;;;;;;18.43;16.13;;;6.30;99.90;;;;;;5070633;28;20197;-50
2021/01/28 10:55:46;;;;;;;16.97;14.77;;;6.40;99.90;;;;;;5054660;28;20178;-47
2021/01/28 10:58:12;;;;;;;17.77;15.67;;;6.50;99.90;;;;;;5072686;28;20605;-48
2021/01/28 11:00:38;;;;;;;16.57;14.70;;;6.60;99.90;;;;;;5072789;28;20179;-50
2021/01/28 11:03:04;;;;;;;16.00;14.30;;;6.70;99.90;;;;;;5073987;28;20201;-49
2021/01/28 11:05:33;;;;;;;16.63;14.43;;;6.70;99.90;;;;;;5074331;28;20179;-51
2021/01/28 11:07:59;;;;;;;16.67;14.57;;;6.70;99.90;;;;;;5075131;28;20183;-50
2021/01/28 11:10:26;;;;;;;16.77;14.57;;;6.80;99.90;;;;;;5076914;28;20249;-48
2021/01/28 11:12:53;;;;;;;16.97;14.80;;;6.70;99.90;;;;;;5075953;28;20202;-46
2021/01/28 11:15:20;;;;;;;16.17;14.37;;;6.50;99.90;;;;;;5075606;28;20233;-48
2021/01/28 11:17:47;;;;;;;15.93;14.23;;;6.40;99.90;;;;;;5058306;28;20647;-47
2021/01/28 11:20:13;;;;;;;17.00;14.67;;;6.40;99.90;;;;;;5065471;28;20244;-47
2021/01/28 11:22:40;;;;;;;15.67;14.00;;;6.50;99.90;;;;;;5075705;28;20581;-50
2021/01/28 11:25:10;;;;;;;16.33;14.53;;;6.40;99.90;;;;;;5068148;28;20179;-49
2021/01/28 11:27:36;;;;;;;14.60;12.77;;;6.30;99.90;;;;;;5074578;28;20669;-50
2021/01/28 11:30:02;;;;;;;13.90;12.50;;;6.30;99.90;;;;;;5085013;28;20285;-50
2021/01/28 11:32:27;;;;;;;11.87;10.67;;;6.30;99.90;;;;;;5074516;28;20230;-48
2021/01/28 11:34:53;;;;;;;14.40;11.67;;;6.30;99.90;;;;;;5071520;28;20182;-51
2021/01/28 11:37:18;;;;;;;12.83;11.30;;;6.20;99.90;;;;;;5076304;28;20505;-48
2021/01/28 11:39:44;;;;;;;12.63;11.30;;;6.20;99.90;;;;;;5074096;28;20237;-49
2021/01/28 11:42:10;;;;;;;12.67;11.37;;;6.20;99.90;;;;;;5072471;28;20166;-54
2021/01/28 11:44:35;;;;;;;14.50;13.00;;;6.10;99.90;;;;;;5074329;28;20178;-46
2021/01/28 11:47:01;;;;;;;13.77;12.23;;;6.00;99.90;;;;;;5072231;28;20182;-48
2021/01/28 11:49:26;;;;;;;14.47;12.97;;;6.00;99.90;;;;;;5065169;28;20201;-48
2021/01/28 11:51:52;;;;;;;14.30;12.80;;;5.90;99.90;;;;;;5070159;28;20213;-47
2021/01/28 11:54:17;;;;;;;14.23;12.73;;;5.90;99.90;;;;;;5069875;28;20270;-46
2021/01/28 11:56:43;;;;;;;14.73;13.10;;;5.90;99.90;;;;;;5068053;28;20216;-48
2021/01/28 11:59:08;;;;;;;12.63;11.07;;;5.90;99.90;;;;;;5062196;28;20223;-50
2021/01/28 12:01:34;;;;;;;12.83;10.97;;;6.00;99.90;;;;;;5073946;28;20206;-47
2021/01/28 12:03:59;;;;;;;12.03;10.70;;;5.90;99.90;;;;;;5065605;28;20217;-48
2021/01/28 12:06:25;;;;;;;14.37;12.87;;;5.70;99.90;;;;;;5079076;28;20248;-49
2021/01/28 12:08:51;;;;;;;13.07;11.13;;;5.70;99.90;;;;;;5071432;28;20222;-48
2021/01/28 12:11:16;;;;;;;11.57;10.30;;;5.70;99.90;;;;;;5074491;28;20678;-50
2021/01/28 12:13:42;;;;;;;12.47;11.17;;;5.60;99.90;;;;;;5074464;28;20202;-49
2021/01/28 12:16:09;;;;;;;13.07;11.67;;;5.50;99.90;;;;;;5076240;28;20167;-55
2021/01/28 12:18:34;;;;;;;13.17;11.37;;;5.50;99.90;;;;;;5073280;28;20194;-46
2021/01/28 12:21:00;;;;;;;14.27;12.40;;;5.50;99.90;;;;;;5073223;28;20182;-48
2021/01/28 12:23:26;;;;;;;15.00;12.13;;;5.50;99.90;;;;;;5073492;28;20630;-50
2021/01/28 12:25:51;;;;;;;13.93;12.20;;;5.50;99.90;;;;;;5075927;28;20175;-48
2021/01/28 12:28:17;;;;;;;13.73;11.93;;;5.40;99.90;;;;;;5076400;28;20206;-50
2021/01/28 12:30:42;;;;;;;14.37;11.27;;;5.40;99.90;;;;;;5074072;28;20182;-49
2021/01/28 12:33:08;;;;;;;15.63;12.70;;;5.30;99.90;;;;;;5078310;28;20336;-53
2021/01/28 12:35:34;;;;;;;12.63;10.47;;;5.30;99.90;;;;;;5084106;28;20189;-47
2021/01/28 12:38:01;;;;;;;13.27;11.87;;;5.30;99.90;;;;;;5064948;28;20204;-51
2021/01/28 12:40:27;;;;;;;13.23;11.93;;;5.40;99.90;;;;;;5074555;28;20177;-46
2021/01/28 12:42:52;;;;;;;12.07;10.83;;;5.30;99.90;;;;;;5072620;28;20281;-50
2021/01/28 12:45:18;;;;;;;11.23;10.07;;;5.30;99.90;;;;;;5065932;28;20199;-47
2021/01/28 12:47:44;;;;;;;11.63;10.43;;;5.40;99.90;;;;;;5064395;28;20187;-48
2021/01/28 12:50:11;;;;;;;14.60;11.97;;;5.40;99.90;;;;;;5066327;28;20198;-49
2021/01/28 12:52:37;;;;;;;12.93;11.27;;;5.40;99.90;;;;;;5057669;28;20206;-50
2021/01/28 12:55:05;;;;;;;12.83;10.10;;;5.30;99.90;;;;;;5053352;28;20202;-49